sensor_id;sensor_type;location;lat;lon;timestamp;pressure;altitude;pressure_sealevel;temperature;humidity
13407;BME280;6774;48.208;10.766;2023-01-30T00:01:53;96140.25;;;-1.32;80.12
13407;BME280;6774;48.208;10.766;2023-01-30T00:04:21;96129.06;;;-1.46;81.31
13407;BME280;6774;48.208;10.766;2023-01-30T00:06:49;96128.31;;;-1.48;81.13
13407;BME280;6774;48.208;10.766;2023-01-30T00:09:17;96120.38;;;-1.45;81.08
13407;BME280;6774;48.208;10.766;2023-01-30T00:11:44;96122.13;;;-1.32;80.96
13407;BME280;6774;48.208;10.766;2023-01-30T00:14:13;96112.19;;;-1.38;81.21
13407;BME280;6774;48.208;10.766;2023-01-30T00:16:41;96109.84;;;-1.56;81.54
13407;BME280;6774;48.208;10.766;2023-01-30T00:19:09;96109.19;;;-1.45;81.85
13407;BME280;6774;48.208;10.766;2023-01-30T00:21:37;96110.94;;;-1.46;81.39
13407;BME280;6774;48.208;10.766;2023-01-30T00:24:05;96113.94;;;-1.39;81.36
13407;BME280;6774;48.208;10.766;2023-01-30T00:26:33;96114.03;;;-1.53;81.67
13407;BME280;6774;48.208;10.766;2023-01-30T00:29:02;96107.09;;;-1.40;81.03
13407;BME280;6774;48.208;10.766;2023-01-30T00:31:31;96093.69;;;-1.59;81.19
13407;BME280;6774;48.208;10.766;2023-01-30T00:33:59;96084.31;;;-1.48;81.86
13407;BME280;6774;48.208;10.766;2023-01-30T00:36:26;96068.44;;;-1.56;81.50
13407;BME280;6774;48.208;10.766;2023-01-30T00:38:55;96065.41;;;-1.35;81.65
13407;BME280;6774;48.208;10.766;2023-01-30T00:41:23;96057.75;;;-1.37;81.25
13407;BME280;6774;48.208;10.766;2023-01-30T00:44:11;96051.41;;;-1.46;82.12
13407;BME280;6774;48.208;10.766;2023-01-30T00:46:59;96044.88;;;-1.38;80.97
13407;BME280;6774;48.208;10.766;2023-01-30T00:49:34;96037.75;;;-1.35;80.72
13407;BME280;6774;48.208;10.766;2023-01-30T00:52:03;96032.97;;;-1.28;80.58
13407;BME280;6774;48.208;10.766;2023-01-30T00:54:31;96038.69;;;-1.23;79.72
13407;BME280;6774;48.208;10.766;2023-01-30T00:56:59;96041.59;;;-1.28;79.99
13407;BME280;6774;48.208;10.766;2023-01-30T00:59:27;96054.63;;;-1.42;80.19
13407;BME280;6774;48.208;10.766;2023-01-30T01:01:55;96037.53;;;-1.45;80.40
13407;BME280;6774;48.208;10.766;2023-01-30T01:04:25;96043.50;;;-1.57;80.81
13407;BME280;6774;48.208;10.766;2023-01-30T01:06:53;96042.28;;;-1.51;80.68
13407;BME280;6774;48.208;10.766;2023-01-30T01:09:20;96052.41;;;-1.61;81.10
13407;BME280;6774;48.208;10.766;2023-01-30T01:11:48;96049.59;;;-1.58;81.40
13407;BME280;6774;48.208;10.766;2023-01-30T01:14:16;96048.28;;;-1.51;80.67
13407;BME280;6774;48.208;10.766;2023-01-30T01:16:44;96045.03;;;-1.67;81.47
13407;BME280;6774;48.208;10.766;2023-01-30T01:19:12;96040.78;;;-1.68;81.65
13407;BME280;6774;48.208;10.766;2023-01-30T01:21:41;96031.09;;;-1.52;80.81
13407;BME280;6774;48.208;10.766;2023-01-30T01:24:12;96037.09;;;-1.64;80.69
13407;BME280;6774;48.208;10.766;2023-01-30T01:26:40;96032.13;;;-1.54;80.83
13407;BME280;6774;48.208;10.766;2023-01-30T01:29:11;96040.41;;;-1.62;81.23
13407;BME280;6774;48.208;10.766;2023-01-30T01:31:39;96036.50;;;-1.55;80.39
13407;BME280;6774;48.208;10.766;2023-01-30T01:34:08;96034.31;;;-1.48;80.73
13407;BME280;6774;48.208;10.766;2023-01-30T01:36:36;96020.75;;;-1.52;80.89
13407;BME280;6774;48.208;10.766;2023-01-30T01:39:22;96015.97;;;-1.58;80.70
13407;BME280;6774;48.208;10.766;2023-01-30T01:41:50;96006.75;;;-1.62;80.77
13407;BME280;6774;48.208;10.766;2023-01-30T01:44:17;96014.09;;;-1.68;81.04
13407;BME280;6774;48.208;10.766;2023-01-30T01:46:47;96002.53;;;-1.50;80.66
13407;BME280;6774;48.208;10.766;2023-01-30T01:49:20;96002.31;;;-1.47;80.19
13407;BME280;6774;48.208;10.766;2023-01-30T01:51:53;96007.25;;;-1.69;80.79
13407;BME280;6774;48.208;10.766;2023-01-30T01:54:28;96013.91;;;-1.53;81.08
13407;BME280;6774;48.208;10.766;2023-01-30T01:57:01;96029.97;;;-1.87;81.24
13407;BME280;6774;48.208;10.766;2023-01-30T01:59:33;96037.63;;;-1.86;82.36
13407;BME280;6774;48.208;10.766;2023-01-30T02:02:08;96043.47;;;-1.69;81.97
13407;BME280;6774;48.208;10.766;2023-01-30T02:04:39;96046.78;;;-2.07;83.08
13407;BME280;6774;48.208;10.766;2023-01-30T02:07:28;96044.56;;;-2.13;83.23
13407;BME280;6774;48.208;10.766;2023-01-30T02:10:01;96050.28;;;-2.35;83.62
13407;BME280;6774;48.208;10.766;2023-01-30T02:12:30;96051.88;;;-2.20;83.49
13407;BME280;6774;48.208;10.766;2023-01-30T02:14:59;96057.81;;;-2.18;83.74
13407;BME280;6774;48.208;10.766;2023-01-30T02:17:27;96047.38;;;-2.31;83.73
13407;BME280;6774;48.208;10.766;2023-01-30T02:20:00;96052.81;;;-2.21;83.36
13407;BME280;6774;48.208;10.766;2023-01-30T02:22:40;96061.63;;;-2.38;84.10
13407;BME280;6774;48.208;10.766;2023-01-30T02:25:38;96054.50;;;-2.34;84.52
13407;BME280;6774;48.208;10.766;2023-01-30T02:28:39;96063.72;;;-2.30;84.05
13407;BME280;6774;48.208;10.766;2023-01-30T02:31:31;96064.47;;;-2.28;84.03
13407;BME280;6774;48.208;10.766;2023-01-30T02:34:13;96052.47;;;-2.02;83.65
13407;BME280;6774;48.208;10.766;2023-01-30T02:36:53;96059.25;;;-2.14;83.21
13407;BME280;6774;48.208;10.766;2023-01-30T02:39:31;96069.72;;;-1.88;82.76
13407;BME280;6774;48.208;10.766;2023-01-30T02:42:08;96087.84;;;-2.03;82.79
13407;BME280;6774;48.208;10.766;2023-01-30T02:44:44;96085.91;;;-1.72;81.88
13407;BME280;6774;48.208;10.766;2023-01-30T02:47:23;96078.78;;;-1.56;81.28
13407;BME280;6774;48.208;10.766;2023-01-30T02:49:57;96085.00;;;-1.58;80.97
13407;BME280;6774;48.208;10.766;2023-01-30T02:52:28;96085.34;;;-1.50;80.61
13407;BME280;6774;48.208;10.766;2023-01-30T02:54:57;96075.19;;;-1.53;80.21
13407;BME280;6774;48.208;10.766;2023-01-30T02:57:24;96062.78;;;-1.48;80.71
13407;BME280;6774;48.208;10.766;2023-01-30T03:00:01;96060.50;;;-1.53;80.58
13407;BME280;6774;48.208;10.766;2023-01-30T03:02:45;96057.41;;;-1.45;80.18
13407;BME280;6774;48.208;10.766;2023-01-30T03:08:26;96030.72;;;-1.33;79.69
13407;BME280;6774;48.208;10.766;2023-01-30T03:11:01;96034.53;;;-1.38;79.54
13407;BME280;6774;48.208;10.766;2023-01-30T03:13:41;96037.09;;;-1.38;80.09
13407;BME280;6774;48.208;10.766;2023-01-30T03:16:16;96045.41;;;-1.46;80.25
13407;BME280;6774;48.208;10.766;2023-01-30T03:18:47;96056.16;;;-1.52;80.61
13407;BME280;6774;48.208;10.766;2023-01-30T03:21:16;96058.19;;;-1.57;80.69
13407;BME280;6774;48.208;10.766;2023-01-30T03:23:44;96050.53;;;-1.59;81.43
13407;BME280;6774;48.208;10.766;2023-01-30T03:26:16;96038.38;;;-1.44;80.70
13407;BME280;6774;48.208;10.766;2023-01-30T03:28:47;96029.66;;;-1.43;80.72
13407;BME280;6774;48.208;10.766;2023-01-30T03:31:16;96042.88;;;-1.73;81.23
13407;BME280;6774;48.208;10.766;2023-01-30T03:33:44;96043.41;;;-1.55;81.59
13407;BME280;6774;48.208;10.766;2023-01-30T03:36:14;96042.56;;;-1.56;81.06
13407;BME280;6774;48.208;10.766;2023-01-30T03:38:43;96039.69;;;-1.64;82.09
13407;BME280;6774;48.208;10.766;2023-01-30T03:41:11;96037.53;;;-1.45;80.92
13407;BME280;6774;48.208;10.766;2023-01-30T03:43:39;96033.91;;;-1.55;81.42
13407;BME280;6774;48.208;10.766;2023-01-30T03:46:07;96029.88;;;-1.33;80.93
13407;BME280;6774;48.208;10.766;2023-01-30T03:48:37;96032.03;;;-1.40;80.61
13407;BME280;6774;48.208;10.766;2023-01-30T03:51:05;96036.19;;;-1.37;80.58
13407;BME280;6774;48.208;10.766;2023-01-30T03:53:35;96022.22;;;-1.22;80.33
13407;BME280;6774;48.208;10.766;2023-01-30T03:56:04;96043.16;;;-1.25;80.65
13407;BME280;6774;48.208;10.766;2023-01-30T03:58:34;96040.44;;;-1.36;81.41
13407;BME280;6774;48.208;10.766;2023-01-30T04:01:14;96042.50;;;-1.29;81.48
13407;BME280;6774;48.208;10.766;2023-01-30T04:03:42;96043.34;;;-1.28;81.01
13407;BME280;6774;48.208;10.766;2023-01-30T04:06:10;96047.38;;;-1.24;80.91
13407;BME280;6774;48.208;10.766;2023-01-30T04:08:39;96042.53;;;-1.16;80.89
13407;BME280;6774;48.208;10.766;2023-01-30T04:11:13;96050.19;;;-1.27;81.38
13407;BME280;6774;48.208;10.766;2023-01-30T04:13:41;96051.19;;;-1.55;82.00
13407;BME280;6774;48.208;10.766;2023-01-30T04:16:14;96053.00;;;-1.70;81.95
13407;BME280;6774;48.208;10.766;2023-01-30T04:19:15;96033.41;;;-1.34;81.86
13407;BME280;6774;48.208;10.766;2023-01-30T04:21:43;96032.47;;;-1.33;80.61
13407;BME280;6774;48.208;10.766;2023-01-30T04:24:13;96032.25;;;-1.43;81.70
13407;BME280;6774;48.208;10.766;2023-01-30T04:26:40;96026.13;;;-1.55;81.12
13407;BME280;6774;48.208;10.766;2023-01-30T04:29:09;96025.13;;;-1.27;80.75
13407;BME280;6774;48.208;10.766;2023-01-30T04:31:38;96016.81;;;-1.19;80.07
13407;BME280;6774;48.208;10.766;2023-01-30T04:34:21;95986.91;;;-1.23;80.07
13407;BME280;6774;48.208;10.766;2023-01-30T04:36:49;95977.47;;;-1.24;79.74
13407;BME280;6774;48.208;10.766;2023-01-30T04:39:18;95985.84;;;-1.59;80.29
13407;BME280;6774;48.208;10.766;2023-01-30T04:41:47;96012.69;;;-1.34;80.27
13407;BME280;6774;48.208;10.766;2023-01-30T04:44:15;96018.28;;;-1.40;80.44
13407;BME280;6774;48.208;10.766;2023-01-30T04:47:06;96011.16;;;-1.37;79.88
13407;BME280;6774;48.208;10.766;2023-01-30T04:49:34;95993.03;;;-1.37;80.54
13407;BME280;6774;48.208;10.766;2023-01-30T04:52:04;95986.59;;;-1.31;80.47
13407;BME280;6774;48.208;10.766;2023-01-30T04:54:36;95983.91;;;-1.42;80.79
13407;BME280;6774;48.208;10.766;2023-01-30T04:57:04;95974.81;;;-1.35;80.58
13407;BME280;6774;48.208;10.766;2023-01-30T04:59:32;95970.53;;;-1.49;80.77
13407;BME280;6774;48.208;10.766;2023-01-30T05:02:03;95982.03;;;-1.40;80.50
13407;BME280;6774;48.208;10.766;2023-01-30T05:04:31;95974.81;;;-1.35;81.34
13407;BME280;6774;48.208;10.766;2023-01-30T05:06:59;95967.75;;;-1.33;80.81
13407;BME280;6774;48.208;10.766;2023-01-30T05:09:27;95969.41;;;-1.32;80.59
13407;BME280;6774;48.208;10.766;2023-01-30T05:11:56;95974.81;;;-1.35;80.25
13407;BME280;6774;48.208;10.766;2023-01-30T05:14:24;95978.94;;;-1.46;80.27
13407;BME280;6774;48.208;10.766;2023-01-30T05:16:52;95971.91;;;-1.44;80.39
13407;BME280;6774;48.208;10.766;2023-01-30T05:19:20;95984.94;;;-1.45;80.18
13407;BME280;6774;48.208;10.766;2023-01-30T05:21:47;95989.28;;;-1.33;80.55
13407;BME280;6774;48.208;10.766;2023-01-30T05:24:15;95996.41;;;-1.62;80.66
13407;BME280;6774;48.208;10.766;2023-01-30T05:26:43;96007.38;;;-1.58;81.73
13407;BME280;6774;48.208;10.766;2023-01-30T05:29:12;96007.47;;;-1.73;81.99
13407;BME280;6774;48.208;10.766;2023-01-30T05:31:40;95990.41;;;-1.62;81.83
13407;BME280;6774;48.208;10.766;2023-01-30T05:34:09;95983.69;;;-1.52;81.16
13407;BME280;6774;48.208;10.766;2023-01-30T05:36:38;95985.34;;;-1.51;81.31
13407;BME280;6774;48.208;10.766;2023-01-30T05:39:06;95986.59;;;-1.44;81.20
13407;BME280;6774;48.208;10.766;2023-01-30T05:41:35;95978.31;;;-1.36;80.95
13407;BME280;6774;48.208;10.766;2023-01-30T05:44:02;95979.34;;;-1.39;80.97
13407;BME280;6774;48.208;10.766;2023-01-30T05:46:32;95977.16;;;-1.32;81.11
13407;BME280;6774;48.208;10.766;2023-01-30T05:49:00;95966.59;;;-1.29;80.79
13407;BME280;6774;48.208;10.766;2023-01-30T05:51:29;95969.94;;;-1.27;80.93
13407;BME280;6774;48.208;10.766;2023-01-30T05:53:57;95977.88;;;-1.30;80.38
13407;BME280;6774;48.208;10.766;2023-01-30T05:56:25;95961.72;;;-1.21;80.87
13407;BME280;6774;48.208;10.766;2023-01-30T05:58:54;95958.31;;;-1.09;80.49
13407;BME280;6774;48.208;10.766;2023-01-30T06:01:22;95952.41;;;-1.11;80.79
13407;BME280;6774;48.208;10.766;2023-01-30T06:03:52;95962.34;;;-1.05;81.02
13407;BME280;6774;48.208;10.766;2023-01-30T06:06:21;95953.34;;;-1.12;80.35
13407;BME280;6774;48.208;10.766;2023-01-30T06:08:52;95958.50;;;-1.12;80.67
13407;BME280;6774;48.208;10.766;2023-01-30T06:11:20;95962.16;;;-1.15;80.79
13407;BME280;6774;48.208;10.766;2023-01-30T06:13:48;95963.38;;;-1.20;80.48
13407;BME280;6774;48.208;10.766;2023-01-30T06:16:17;95957.00;;;-1.27;80.31
13407;BME280;6774;48.208;10.766;2023-01-30T06:18:45;95961.13;;;-1.25;80.35
13407;BME280;6774;48.208;10.766;2023-01-30T06:21:15;95973.97;;;-1.23;80.41
13407;BME280;6774;48.208;10.766;2023-01-30T06:23:43;95975.81;;;-1.12;80.24
13407;BME280;6774;48.208;10.766;2023-01-30T06:26:12;95978.59;;;-1.28;80.28
13407;BME280;6774;48.208;10.766;2023-01-30T06:28:40;95969.13;;;-1.28;80.27
13407;BME280;6774;48.208;10.766;2023-01-30T06:31:08;95973.34;;;-1.27;80.54
13407;BME280;6774;48.208;10.766;2023-01-30T06:33:36;95987.84;;;-1.24;80.20
13407;BME280;6774;48.208;10.766;2023-01-30T06:36:04;95979.97;;;-1.23;80.47
13407;BME280;6774;48.208;10.766;2023-01-30T06:38:33;95982.88;;;-1.27;80.13
13407;BME280;6774;48.208;10.766;2023-01-30T06:41:01;95983.91;;;-1.17;80.85
13407;BME280;6774;48.208;10.766;2023-01-30T06:43:29;95978.72;;;-1.17;80.62
13407;BME280;6774;48.208;10.766;2023-01-30T06:45:57;95989.06;;;-1.04;80.53
13407;BME280;6774;48.208;10.766;2023-01-30T06:48:25;95989.97;;;-0.93;79.87
13407;BME280;6774;48.208;10.766;2023-01-30T06:50:53;95997.16;;;-0.96;79.69
13407;BME280;6774;48.208;10.766;2023-01-30T06:53:21;96000.00;;;-0.75;79.87
13407;BME280;6774;48.208;10.766;2023-01-30T06:55:57;96008.56;;;-0.99;80.98
13407;BME280;6774;48.208;10.766;2023-01-30T06:58:25;96000.88;;;-1.13;81.81
13407;BME280;6774;48.208;10.766;2023-01-30T07:00:52;96017.66;;;-1.06;81.29
13407;BME280;6774;48.208;10.766;2023-01-30T07:03:20;96014.75;;;-1.14;81.25
13407;BME280;6774;48.208;10.766;2023-01-30T07:05:48;95999.97;;;-0.99;80.59
13407;BME280;6774;48.208;10.766;2023-01-30T07:08:16;95997.16;;;-1.09;81.61
13407;BME280;6774;48.208;10.766;2023-01-30T07:10:43;95996.53;;;-1.00;80.69
13407;BME280;6774;48.208;10.766;2023-01-30T07:13:12;95998.56;;;-0.92;80.67
13407;BME280;6774;48.208;10.766;2023-01-30T07:15:40;95995.34;;;-0.83;79.46
13407;BME280;6774;48.208;10.766;2023-01-30T07:18:08;95999.81;;;-0.85;79.28
13407;BME280;6774;48.208;10.766;2023-01-30T07:20:36;96001.88;;;-0.77;79.09
13407;BME280;6774;48.208;10.766;2023-01-30T07:23:03;96013.09;;;-0.90;79.31
13407;BME280;6774;48.208;10.766;2023-01-30T07:25:32;96007.69;;;-0.74;79.13
13407;BME280;6774;48.208;10.766;2023-01-30T07:28:01;95999.94;;;-0.87;79.45
13407;BME280;6774;48.208;10.766;2023-01-30T07:30:33;96000.75;;;-0.86;79.12
13407;BME280;6774;48.208;10.766;2023-01-30T07:33:03;96009.28;;;-0.97;79.52
13407;BME280;6774;48.208;10.766;2023-01-30T07:35:33;96004.81;;;-0.82;79.00
13407;BME280;6774;48.208;10.766;2023-01-30T07:38:02;95993.47;;;-0.68;78.24
13407;BME280;6774;48.208;10.766;2023-01-30T07:40:30;95994.41;;;-0.69;78.44
13407;BME280;6774;48.208;10.766;2023-01-30T07:42:58;95991.06;;;-0.59;78.11
13407;BME280;6774;48.208;10.766;2023-01-30T07:45:33;95990.59;;;-0.76;77.98
13407;BME280;6774;48.208;10.766;2023-01-30T07:48:02;95984.56;;;-0.77;77.68
13407;BME280;6774;48.208;10.766;2023-01-30T07:50:30;95986.22;;;-0.76;77.81
13407;BME280;6774;48.208;10.766;2023-01-30T07:52:57;95977.09;;;-0.69;77.75
13407;BME280;6774;48.208;10.766;2023-01-30T07:55:25;95989.88;;;-0.42;77.74
13407;BME280;6774;48.208;10.766;2023-01-30T07:57:53;95983.75;;;-0.41;77.17
13407;BME280;6774;48.208;10.766;2023-01-30T08:00:21;95980.75;;;-0.35;76.43
13407;BME280;6774;48.208;10.766;2023-01-30T08:02:50;96000.53;;;-0.34;77.65
13407;BME280;6774;48.208;10.766;2023-01-30T08:05:18;95982.06;;;-0.05;76.63
13407;BME280;6774;48.208;10.766;2023-01-30T08:07:47;95979.41;;;0.08;75.98
13407;BME280;6774;48.208;10.766;2023-01-30T08:10:15;95974.66;;;0.02;75.90
13407;BME280;6774;48.208;10.766;2023-01-30T08:12:44;95988.63;;;0.12;75.91
13407;BME280;6774;48.208;10.766;2023-01-30T08:15:11;95981.59;;;0.25;76.11
13407;BME280;6774;48.208;10.766;2023-01-30T08:17:39;95964.78;;;0.53;75.57
13407;BME280;6774;48.208;10.766;2023-01-30T08:20:10;95965.53;;;0.77;74.55
13407;BME280;6774;48.208;10.766;2023-01-30T08:22:42;95960.84;;;0.82;73.79
13407;BME280;6774;48.208;10.766;2023-01-30T08:25:10;95957.75;;;0.77;73.21
13407;BME280;6774;48.208;10.766;2023-01-30T08:27:38;95951.38;;;0.81;73.26
13407;BME280;6774;48.208;10.766;2023-01-30T08:30:07;95965.41;;;0.79;72.42
13407;BME280;6774;48.208;10.766;2023-01-30T08:32:35;95975.47;;;0.83;71.97
13407;BME280;6774;48.208;10.766;2023-01-30T08:35:03;95972.63;;;1.09;71.17
13407;BME280;6774;48.208;10.766;2023-01-30T08:37:32;95962.25;;;0.98;70.91
13407;BME280;6774;48.208;10.766;2023-01-30T08:40:00;95958.72;;;1.10;71.38
13407;BME280;6774;48.208;10.766;2023-01-30T08:42:27;95947.13;;;1.03;71.36
13407;BME280;6774;48.208;10.766;2023-01-30T08:44:55;95944.06;;;0.75;71.15
13407;BME280;6774;48.208;10.766;2023-01-30T08:47:24;95941.91;;;0.58;72.22
13407;BME280;6774;48.208;10.766;2023-01-30T08:49:51;95927.28;;;0.79;72.33
13407;BME280;6774;48.208;10.766;2023-01-30T08:52:19;95915.94;;;0.80;71.80
13407;BME280;6774;48.208;10.766;2023-01-30T08:54:49;95924.69;;;0.91;71.08
13407;BME280;6774;48.208;10.766;2023-01-30T08:57:17;95927.53;;;0.76;71.71
13407;BME280;6774;48.208;10.766;2023-01-30T08:59:45;95931.31;;;0.83;72.33
13407;BME280;6774;48.208;10.766;2023-01-30T09:02:13;95937.22;;;0.85;72.10
13407;BME280;6774;48.208;10.766;2023-01-30T09:04:41;95934.84;;;0.94;71.68
13407;BME280;6774;48.208;10.766;2023-01-30T09:07:08;95928.69;;;1.71;70.18
13407;BME280;6774;48.208;10.766;2023-01-30T09:09:36;95920.16;;;3.16;65.94
13407;BME280;6774;48.208;10.766;2023-01-30T09:12:06;95912.88;;;3.50;63.32
13407;BME280;6774;48.208;10.766;2023-01-30T09:14:33;95918.53;;;4.42;62.08
13407;BME280;6774;48.208;10.766;2023-01-30T09:17:01;95903.09;;;3.42;62.99
13407;BME280;6774;48.208;10.766;2023-01-30T09:19:29;95918.78;;;3.11;63.04
13407;BME280;6774;48.208;10.766;2023-01-30T09:21:57;95923.25;;;2.69;65.19
13407;BME280;6774;48.208;10.766;2023-01-30T09:24:25;95925.78;;;2.18;66.88
13407;BME280;6774;48.208;10.766;2023-01-30T09:26:53;95937.28;;;2.15;68.55
13407;BME280;6774;48.208;10.766;2023-01-30T09:29:25;95921.03;;;2.02;69.22
13407;BME280;6774;48.208;10.766;2023-01-30T09:31:53;95914.66;;;1.95;68.49
13407;BME280;6774;48.208;10.766;2023-01-30T09:34:21;95915.84;;;1.91;70.08
13407;BME280;6774;48.208;10.766;2023-01-30T09:36:52;95919.63;;;1.98;70.19
13407;BME280;6774;48.208;10.766;2023-01-30T09:39:20;95919.31;;;2.54;68.44
13407;BME280;6774;48.208;10.766;2023-01-30T09:42:05;95896.94;;;2.21;67.43
13407;BME280;6774;48.208;10.766;2023-01-30T09:47:57;95879.31;;;2.34;68.29
13407;BME280;6774;48.208;10.766;2023-01-30T09:53:52;95888.59;;;3.97;62.89
13407;BME280;6774;48.208;10.766;2023-01-30T09:56:26;95904.94;;;4.95;61.98
13407;BME280;6774;48.208;10.766;2023-01-30T09:58:56;95897.09;;;5.22;60.49
13407;BME280;6774;48.208;10.766;2023-01-30T10:01:29;95883.03;;;6.14;59.08
13407;BME280;6774;48.208;10.766;2023-01-30T10:04:05;95850.88;;;6.30;57.10
13407;BME280;6774;48.208;10.766;2023-01-30T10:06:42;95880.00;;;6.44;57.83
13407;BME280;6774;48.208;10.766;2023-01-30T10:09:16;95866.38;;;6.67;56.62
13407;BME280;6774;48.208;10.766;2023-01-30T10:12:00;95874.53;;;6.90;56.36
13407;BME280;6774;48.208;10.766;2023-01-30T10:14:52;95863.72;;;6.59;56.57
13407;BME280;6774;48.208;10.766;2023-01-30T10:17:32;95858.13;;;7.22;56.32
13407;BME280;6774;48.208;10.766;2023-01-30T10:20:20;95853.19;;;7.19;55.70
13407;BME280;6774;48.208;10.766;2023-01-30T10:23:14;95831.56;;;7.25;54.69
13407;BME280;6774;48.208;10.766;2023-01-30T10:25:49;95810.19;;;7.11;56.46
13407;BME280;6774;48.208;10.766;2023-01-30T10:28:23;95816.56;;;7.59;55.53
13407;BME280;6774;48.208;10.766;2023-01-30T10:30:57;95824.47;;;6.49;55.76
13407;BME280;6774;48.208;10.766;2023-01-30T10:33:30;95811.31;;;4.98;60.10
13407;BME280;6774;48.208;10.766;2023-01-30T10:36:03;95819.19;;;4.14;63.60
13407;BME280;6774;48.208;10.766;2023-01-30T10:38:37;95820.97;;;3.46;65.23
13407;BME280;6774;48.208;10.766;2023-01-30T10:41:13;95838.53;;;2.75;68.10
13407;BME280;6774;48.208;10.766;2023-01-30T10:43:44;95844.94;;;2.71;69.23
13407;BME280;6774;48.208;10.766;2023-01-30T10:46:25;95825.41;;;2.55;69.96
13407;BME280;6774;48.208;10.766;2023-01-30T10:49:02;95823.25;;;2.61;70.39
13407;BME280;6774;48.208;10.766;2023-01-30T10:51:41;95824.03;;;2.51;70.74
13407;BME280;6774;48.208;10.766;2023-01-30T10:54:16;95805.69;;;2.63;70.93
13407;BME280;6774;48.208;10.766;2023-01-30T10:56:53;95815.78;;;3.85;67.48
13407;BME280;6774;48.208;10.766;2023-01-30T10:59:32;95786.81;;;4.35;65.66
13407;BME280;6774;48.208;10.766;2023-01-30T11:02:18;95785.81;;;3.89;65.86
13407;BME280;6774;48.208;10.766;2023-01-30T11:04:55;95781.50;;;4.54;65.87
13407;BME280;6774;48.208;10.766;2023-01-30T11:07:25;95793.00;;;4.71;63.50
13407;BME280;6774;48.208;10.766;2023-01-30T11:09:57;95783.88;;;4.75;64.23
13407;BME280;6774;48.208;10.766;2023-01-30T11:12:25;95790.38;;;4.98;64.12
13407;BME280;6774;48.208;10.766;2023-01-30T11:14:57;95792.84;;;5.00;63.83
13407;BME280;6774;48.208;10.766;2023-01-30T11:17:32;95782.69;;;4.97;63.92
13407;BME280;6774;48.208;10.766;2023-01-30T11:20:06;95772.28;;;4.60;65.42
13407;BME280;6774;48.208;10.766;2023-01-30T11:22:44;95790.50;;;3.95;67.03
13407;BME280;6774;48.208;10.766;2023-01-30T11:25:15;95776.06;;;4.38;66.97
13407;BME280;6774;48.208;10.766;2023-01-30T11:27:51;95780.44;;;5.02;65.24
13407;BME280;6774;48.208;10.766;2023-01-30T11:30:20;95766.00;;;5.25;64.58
13407;BME280;6774;48.208;10.766;2023-01-30T11:32:49;95771.31;;;4.61;65.25
13407;BME280;6774;48.208;10.766;2023-01-30T11:35:26;95762.03;;;3.82;68.95
13407;BME280;6774;48.208;10.766;2023-01-30T11:38:10;95778.41;;;3.46;70.13
13407;BME280;6774;48.208;10.766;2023-01-30T11:40:38;95777.13;;;3.01;71.81
13407;BME280;6774;48.208;10.766;2023-01-30T11:43:10;95777.03;;;2.63;72.97
13407;BME280;6774;48.208;10.766;2023-01-30T11:45:41;95776.31;;;2.51;74.16
13407;BME280;6774;48.208;10.766;2023-01-30T11:48:14;95763.38;;;2.30;73.88
13407;BME280;6774;48.208;10.766;2023-01-30T11:51:05;95790.03;;;2.53;73.12
13407;BME280;6774;48.208;10.766;2023-01-30T11:53:36;95771.94;;;2.51;73.54
13407;BME280;6774;48.208;10.766;2023-01-30T11:56:11;95765.88;;;2.41;73.31
13407;BME280;6774;48.208;10.766;2023-01-30T11:58:42;95768.94;;;2.25;73.03
13407;BME280;6774;48.208;10.766;2023-01-30T12:01:13;95760.16;;;2.47;74.08
13407;BME280;6774;48.208;10.766;2023-01-30T12:03:45;95744.94;;;2.52;74.12
13407;BME280;6774;48.208;10.766;2023-01-30T12:06:23;95739.66;;;2.33;74.16
13407;BME280;6774;48.208;10.766;2023-01-30T12:08:52;95735.69;;;2.29;76.01
13407;BME280;6774;48.208;10.766;2023-01-30T12:11:26;95753.81;;;2.40;75.30
13407;BME280;6774;48.208;10.766;2023-01-30T12:14:08;95742.44;;;2.41;75.42
13407;BME280;6774;48.208;10.766;2023-01-30T12:16:47;95734.66;;;2.51;75.66
13407;BME280;6774;48.208;10.766;2023-01-30T12:19:27;95729.31;;;2.52;74.81
13407;BME280;6774;48.208;10.766;2023-01-30T12:22:03;95739.59;;;2.64;75.12
13407;BME280;6774;48.208;10.766;2023-01-30T12:24:37;95717.81;;;2.65;74.51
13407;BME280;6774;48.208;10.766;2023-01-30T12:27:12;95709.47;;;2.71;74.76
13407;BME280;6774;48.208;10.766;2023-01-30T12:29:52;95723.75;;;2.86;73.80
13407;BME280;6774;48.208;10.766;2023-01-30T12:32:26;95714.03;;;2.88;74.49
13407;BME280;6774;48.208;10.766;2023-01-30T12:34:54;95712.94;;;3.20;73.00
13407;BME280;6774;48.208;10.766;2023-01-30T12:37:35;95698.69;;;3.04;72.71
13407;BME280;6774;48.208;10.766;2023-01-30T12:40:13;95689.75;;;2.97;73.03
13407;BME280;6774;48.208;10.766;2023-01-30T12:43:06;95686.19;;;2.98;72.83
13407;BME280;6774;48.208;10.766;2023-01-30T12:45:39;95680.13;;;2.88;73.74
13407;BME280;6774;48.208;10.766;2023-01-30T12:48:33;95683.72;;;2.97;72.68
13407;BME280;6774;48.208;10.766;2023-01-30T12:51:27;95676.84;;;2.67;72.94
13407;BME280;6774;48.208;10.766;2023-01-30T12:54:06;95674.63;;;2.72;73.22
13407;BME280;6774;48.208;10.766;2023-01-30T12:56:54;95656.53;;;2.80;73.94
13407;BME280;6774;48.208;10.766;2023-01-30T12:59:29;95665.59;;;2.76;73.63
13407;BME280;6774;48.208;10.766;2023-01-30T13:02:26;95657.50;;;2.79;73.85
13407;BME280;6774;48.208;10.766;2023-01-30T13:05:15;95648.72;;;2.80;73.82
13407;BME280;6774;48.208;10.766;2023-01-30T13:07:59;95656.25;;;2.83;73.85
13407;BME280;6774;48.208;10.766;2023-01-30T13:10:35;95653.53;;;2.75;73.02
13407;BME280;6774;48.208;10.766;2023-01-30T13:13:12;95663.16;;;2.84;73.69
13407;BME280;6774;48.208;10.766;2023-01-30T13:15:46;95655.03;;;2.68;74.79
13407;BME280;6774;48.208;10.766;2023-01-30T13:18:23;95666.16;;;2.89;74.11
13407;BME280;6774;48.208;10.766;2023-01-30T13:20:58;95683.03;;;2.95;72.99
13407;BME280;6774;48.208;10.766;2023-01-30T13:23:38;95677.81;;;3.14;74.04
13407;BME280;6774;48.208;10.766;2023-01-30T13:26:11;95671.09;;;3.11;73.93
13407;BME280;6774;48.208;10.766;2023-01-30T13:28:43;95671.88;;;2.83;73.88
13407;BME280;6774;48.208;10.766;2023-01-30T13:31:15;95667.78;;;3.09;72.99
13407;BME280;6774;48.208;10.766;2023-01-30T13:33:49;95680.66;;;2.82;74.13
13407;BME280;6774;48.208;10.766;2023-01-30T13:36:22;95692.63;;;2.94;73.39
13407;BME280;6774;48.208;10.766;2023-01-30T13:38:57;95690.28;;;2.81;74.39
13407;BME280;6774;48.208;10.766;2023-01-30T13:41:33;95700.44;;;2.84;73.67